Time;durP1;ratioP1;P1;durP2;ratioP2;P2;SDS_P1;SDS_P2;PMS_P1;PMS_P2;Temp;Humidity;BMP_temperature;BMP_pressure;BME280_temperature;BME280_humidity;BME280_pressure;Samples;Min_cycle;Max_cycle;Signal;HPM_P1;HPM_P2
2021/04/22 00:02:19;;;;;;;15.70;5.50;;;;;;;;;;5013224;28;20488;-66
2021/04/22 00:04:46;;;;;;;18.20;6.90;;;;;;;;;;5019390;28;20464;-68
2021/04/22 00:07:13;;;;;;;13.40;5.33;;;;;;;;;;5022103;28;20472;-66
2021/04/22 00:09:40;;;;;;;14.67;5.50;;;;;;;;;;5023575;28;20952;-66
2021/04/22 00:12:07;;;;;;;9.63;4.60;;;;;;;;;;5025632;28;20473;-67
2021/04/22 00:14:34;;;;;;;9.00;5.33;;;;;;;;;;5020946;28;20531;-66
2021/04/22 00:17:00;;;;;;;9.97;5.20;;;;;;;;;;5026740;28;20867;-67
2021/04/22 00:19:27;;;;;;;10.73;5.60;;;;;;;;;;5022589;28;20456;-66
2021/04/22 00:21:54;;;;;;;14.10;5.67;;;;;;;;;;5019673;28;21023;-66
2021/04/22 00:24:21;;;;;;;13.80;6.00;;;;;;;;;;5013909;28;21037;-69
2021/04/22 00:26:48;;;;;;;16.20;4.77;;;;;;;;;;5014609;28;20499;-66
2021/04/22 00:29:14;;;;;;;18.23;6.07;;;;;;;;;;5020538;28;20846;-66
2021/04/22 00:31:41;;;;;;;7.70;4.57;;;;;;;;;;5009975;28;20485;-67
2021/04/22 00:34:07;;;;;;;8.63;5.23;;;;;;;;;;5015431;28;21022;-66
2021/04/22 00:36:34;;;;;;;8.90;5.77;;;;;;;;;;5011529;28;20450;-65
2021/04/22 00:39:01;;;;;;;10.30;5.00;;;;;;;;;;5015153;28;20837;-67
2021/04/22 00:41:28;;;;;;;11.73;5.07;;;;;;;;;;5029714;28;20496;-66
2021/04/22 00:43:55;;;;;;;11.90;4.83;;;;;;;;;;5028068;28;20481;-66
2021/04/22 00:46:21;;;;;;;11.00;4.80;;;;;;;;;;5022821;28;20472;-66
2021/04/22 00:48:48;;;;;;;12.30;5.23;;;;;;;;;;5017569;28;20469;-66
2021/04/22 00:51:15;;;;;;;11.10;5.57;;;;;;;;;;5011309;28;20476;-66
2021/04/22 00:53:42;;;;;;;12.33;5.50;;;;;;;;;;5021409;28;20979;-66
2021/04/22 00:56:08;;;;;;;8.97;3.63;;;;;;;;;;4991616;28;20451;-66
2021/04/22 00:58:36;;;;;;;12.90;4.83;;;;;;;;;;5033223;28;20959;-67
2021/04/22 01:01:03;;;;;;;13.23;5.00;;;;;;;;;;5014885;28;20476;-66
2021/04/22 01:03:30;;;;;;;18.63;6.60;;;;;;;;;;5018694;28;20492;-66
2021/04/22 01:05:58;;;;;;;14.70;5.50;;;;;;;;;;5016894;28;20475;-66
2021/04/22 01:08:25;;;;;;;14.37;4.97;;;;;;;;;;5022302;28;20453;-66
2021/04/22 01:10:52;;;;;;;11.37;4.50;;;;;;;;;;5015346;28;20453;-69
2021/04/22 01:13:18;;;;;;;13.57;5.00;;;;;;;;;;5023604;28;20468;-67
2021/04/22 01:15:46;;;;;;;13.60;5.00;;;;;;;;;;5012844;28;20453;-67
2021/04/22 01:18:13;;;;;;;12.67;4.93;;;;;;;;;;5018530;28;20481;-67
2021/04/22 01:20:40;;;;;;;9.93;3.77;;;;;;;;;;5014562;28;20877;-66
2021/04/22 01:23:08;;;;;;;9.40;4.97;;;;;;;;;;5016496;28;20496;-66
2021/04/22 01:25:35;;;;;;;15.40;4.93;;;;;;;;;;5014651;28;20483;-70
2021/04/22 01:28:03;;;;;;;6.70;3.27;;;;;;;;;;5016252;28;20468;-69
2021/04/22 01:30:31;;;;;;;11.33;5.23;;;;;;;;;;4995177;28;20442;-66
2021/04/22 01:32:58;;;;;;;11.60;4.93;;;;;;;;;;5009807;28;20526;-66
2021/04/22 01:35:26;;;;;;;9.53;4.80;;;;;;;;;;5034296;28;20452;-68
2021/04/22 01:37:53;;;;;;;7.00;4.07;;;;;;;;;;5024877;28;20468;-67
2021/04/22 01:40:21;;;;;;;12.47;5.03;;;;;;;;;;5033068;28;20476;-66
2021/04/22 01:42:48;;;;;;;11.60;4.73;;;;;;;;;;5025146;28;20488;-65
2021/04/22 01:45:15;;;;;;;10.53;5.30;;;;;;;;;;5034246;28;20451;-66
2021/04/22 01:47:43;;;;;;;14.53;6.00;;;;;;;;;;5030121;28;20472;-65
2021/04/22 01:50:10;;;;;;;9.70;4.90;;;;;;;;;;5034468;28;20444;-66
2021/04/22 01:52:38;;;;;;;12.67;4.93;;;;;;;;;;5027174;28;20481;-67
2021/04/22 01:55:05;;;;;;;11.20;4.90;;;;;;;;;;5014381;28;20456;-67
2021/04/22 01:57:32;;;;;;;15.00;5.60;;;;;;;;;;5013458;28;20470;-67
2021/04/22 01:59:59;;;;;;;9.10;5.10;;;;;;;;;;5014058;28;20450;-69
2021/04/22 02:02:26;;;;;;;12.67;5.00;;;;;;;;;;5018484;28;20488;-67
2021/04/22 02:04:52;;;;;;;12.27;4.77;;;;;;;;;;5014839;28;20466;-67
2021/04/22 02:07:19;;;;;;;12.43;4.90;;;;;;;;;;5014831;28;20963;-68
2021/04/22 02:09:45;;;;;;;8.33;4.50;;;;;;;;;;5033857;28;20441;-67
2021/04/22 02:12:12;;;;;;;14.80;4.47;;;;;;;;;;5026258;28;20481;-67
2021/04/22 02:14:40;;;;;;;9.00;4.37;;;;;;;;;;5013690;28;20444;-66
2021/04/22 02:17:06;;;;;;;11.60;4.83;;;;;;;;;;5012400;28;20457;-67
2021/04/22 02:19:33;;;;;;;10.83;5.80;;;;;;;;;;5014077;28;20472;-66
2021/04/22 02:21:59;;;;;;;14.90;5.87;;;;;;;;;;5013811;28;20488;-68
2021/04/22 02:24:26;;;;;;;15.40;4.80;;;;;;;;;;5013707;28;20491;-66
2021/04/22 02:26:52;;;;;;;11.23;4.50;;;;;;;;;;5013582;28;20470;-66
2021/04/22 02:29:19;;;;;;;10.13;4.40;;;;;;;;;;5023267;28;20720;-66
2021/04/22 02:31:47;;;;;;;9.13;4.40;;;;;;;;;;5012111;28;20513;-66
2021/04/22 02:34:13;;;;;;;7.17;3.50;;;;;;;;;;5027069;28;20468;-67
2021/04/22 02:36:40;;;;;;;8.13;4.33;;;;;;;;;;5023994;28;20473;-68
2021/04/22 02:39:07;;;;;;;12.53;4.13;;;;;;;;;;5023497;28;20972;-67
2021/04/22 02:41:34;;;;;;;14.97;5.03;;;;;;;;;;5017086;28;20554;-68
2021/04/22 02:44:01;;;;;;;10.47;3.83;;;;;;;;;;5032000;28;20488;-67
2021/04/22 02:46:27;;;;;;;9.17;4.53;;;;;;;;;;5030664;28;20472;-67
2021/04/22 02:48:55;;;;;;;9.60;3.50;;;;;;;;;;5017448;28;20469;-68
2021/04/22 02:51:21;;;;;;;8.70;3.70;;;;;;;;;;5012133;28;20482;-67
2021/04/22 02:53:48;;;;;;;10.00;4.23;;;;;;;;;;5013251;28;20449;-67
2021/04/22 02:56:14;;;;;;;8.20;3.30;;;;;;;;;;5012324;28;20826;-68
2021/04/22 02:58:41;;;;;;;9.30;4.33;;;;;;;;;;5031431;28;20468;-68
2021/04/22 03:01:08;;;;;;;10.73;4.33;;;;;;;;;;5028388;28;20550;-67
2021/04/22 03:03:34;;;;;;;8.33;4.30;;;;;;;;;;5018558;28;20503;-67
2021/04/22 03:06:02;;;;;;;6.47;3.20;;;;;;;;;;5027937;28;20469;-69
2021/04/22 03:08:28;;;;;;;6.90;3.63;;;;;;;;;;5013077;28;20964;-67
2021/04/22 03:10:55;;;;;;;9.70;3.90;;;;;;;;;;5021014;28;20476;-68
2021/04/22 03:13:22;;;;;;;8.17;4.23;;;;;;;;;;5013544;28;20523;-67
2021/04/22 03:15:48;;;;;;;9.90;4.50;;;;;;;;;;5018417;28;20465;-69
2021/04/22 03:18:15;;;;;;;8.37;4.10;;;;;;;;;;5014881;28;20453;-69
2021/04/22 03:20:42;;;;;;;16.20;5.93;;;;;;;;;;5013682;28;20475;-67
2021/04/22 03:23:09;;;;;;;8.83;3.80;;;;;;;;;;5012437;28;20477;-67
2021/04/22 03:25:36;;;;;;;9.40;4.33;;;;;;;;;;5022725;28;20526;-66
2021/04/22 03:28:03;;;;;;;12.03;3.83;;;;;;;;;;5017263;28;20454;-68
2021/04/22 03:30:31;;;;;;;11.90;5.30;;;;;;;;;;5012743;28;20461;-67
2021/04/22 03:32:57;;;;;;;8.17;4.10;;;;;;;;;;5011458;28;20466;-67
2021/04/22 03:35:24;;;;;;;12.70;4.60;;;;;;;;;;5025266;28;20462;-67
2021/04/22 03:37:51;;;;;;;11.67;5.00;;;;;;;;;;5018143;28;20571;-69
2021/04/22 03:40:20;;;;;;;10.53;4.53;;;;;;;;;;5014242;28;20512;-67
2021/04/22 03:42:47;;;;;;;10.57;4.23;;;;;;;;;;5017924;28;20496;-67
2021/04/22 03:45:14;;;;;;;12.40;4.90;;;;;;;;;;5014199;28;20548;-67
2021/04/22 03:47:41;;;;;;;8.20;4.60;;;;;;;;;;5012079;28;20454;-67
2021/04/22 03:50:09;;;;;;;8.87;4.23;;;;;;;;;;5013467;28;20474;-69
2021/04/22 03:52:36;;;;;;;10.07;4.77;;;;;;;;;;5011850;28;20476;-68
2021/04/22 03:55:02;;;;;;;9.20;3.83;;;;;;;;;;5017775;28;20526;-67
2021/04/22 03:57:30;;;;;;;10.10;4.23;;;;;;;;;;5031623;28;20453;-65
2021/04/22 03:59:56;;;;;;;11.80;4.67;;;;;;;;;;5017824;28;20461;-66
2021/04/22 04:02:23;;;;;;;10.40;4.57;;;;;;;;;;5012074;28;20469;-66
2021/04/22 04:04:50;;;;;;;14.23;5.30;;;;;;;;;;5011043;28;20493;-68
2021/04/22 04:07:16;;;;;;;12.93;6.13;;;;;;;;;;5011541;28;20456;-66
2021/04/22 04:09:43;;;;;;;14.80;5.60;;;;;;;;;;5019016;28;20470;-66
2021/04/22 04:12:10;;;;;;;11.20;5.67;;;;;;;;;;5011596;28;20473;-66
2021/04/22 04:14:38;;;;;;;17.13;5.63;;;;;;;;;;5011545;28;20462;-66
2021/04/22 04:17:05;;;;;;;16.30;5.47;;;;;;;;;;5011806;28;20449;-66
2021/04/22 04:19:31;;;;;;;15.43;5.30;;;;;;;;;;5009541;28;20476;-67
2021/04/22 04:21:58;;;;;;;11.73;5.50;;;;;;;;;;5014856;28;20470;-65
2021/04/22 04:24:24;;;;;;;16.27;5.37;;;;;;;;;;5006066;28;20854;-66
2021/04/22 04:26:51;;;;;;;13.20;5.50;;;;;;;;;;4996225;28;20985;-66
2021/04/22 04:29:18;;;;;;;17.67;6.07;;;;;;;;;;5016352;28;20875;-66
2021/04/22 04:31:45;;;;;;;13.73;5.67;;;;;;;;;;5028247;28;20492;-67
2021/04/22 04:34:12;;;;;;;18.00;7.37;;;;;;;;;;5026163;28;20652;-66
2021/04/22 04:36:43;;;;;;;15.83;9.00;;;;;;;;;;5033098;28;20456;-66
2021/04/22 04:39:10;;;;;;;17.10;9.10;;;;;;;;;;5022544;28;20841;-66
2021/04/22 04:41:37;;;;;;;15.00;9.30;;;;;;;;;;5016831;28;20543;-69
2021/04/22 04:44:03;;;;;;;16.10;10.00;;;;;;;;;;5020595;28;20500;-66
2021/04/22 04:46:30;;;;;;;17.53;10.00;;;;;;;;;;5034988;28;20460;-66
2021/04/22 04:48:58;;;;;;;21.13;10.87;;;;;;;;;;5021009;28;20464;-66
2021/04/22 04:51:24;;;;;;;17.23;8.70;;;;;;;;;;5035197;28;20468;-68
2021/04/22 04:53:51;;;;;;;10.83;6.07;;;;;;;;;;5021909;28;20486;-67
2021/04/22 04:56:18;;;;;;;18.57;6.87;;;;;;;;;;5032974;28;20449;-67
2021/04/22 04:58:45;;;;;;;13.00;5.90;;;;;;;;;;5023883;28;20472;-68
2021/04/22 05:01:12;;;;;;;9.63;5.43;;;;;;;;;;5035124;28;20527;-66
2021/04/22 05:03:39;;;;;;;13.10;5.30;;;;;;;;;;5018494;28;20554;-68
2021/04/22 05:06:07;;;;;;;11.63;5.70;;;;;;;;;;4996733;28;20453;-66
2021/04/22 05:08:34;;;;;;;16.60;6.10;;;;;;;;;;5021448;28;20464;-66
2021/04/22 05:11:01;;;;;;;18.53;6.27;;;;;;;;;;5030961;28;21838;-66
2021/04/22 05:13:28;;;;;;;14.90;6.00;;;;;;;;;;5031645;28;20442;-68
2021/04/22 05:15:56;;;;;;;10.57;4.40;;;;;;;;;;5034753;28;20842;-66
2021/04/22 05:18:22;;;;;;;12.80;5.50;;;;;;;;;;5023807;28;20523;-66
2021/04/22 05:20:50;;;;;;;16.97;5.63;;;;;;;;;;5022832;28;20534;-66
2021/04/22 05:23:17;;;;;;;14.93;5.03;;;;;;;;;;5034699;28;21009;-66
2021/04/22 05:25:44;;;;;;;9.30;4.23;;;;;;;;;;5024919;28;20472;-68
2021/04/22 05:28:11;;;;;;;8.80;5.40;;;;;;;;;;5033906;28;20506;-67
2021/04/22 05:30:37;;;;;;;11.83;5.83;;;;;;;;;;5031428;28;20476;-65
2021/04/22 05:33:04;;;;;;;16.27;5.20;;;;;;;;;;5034398;28;20468;-66
2021/04/22 05:35:31;;;;;;;15.20;5.27;;;;;;;;;;5028981;28;20464;-66
2021/04/22 05:37:57;;;;;;;12.57;4.73;;;;;;;;;;5033666;28;20445;-66
2021/04/22 05:40:25;;;;;;;12.67;5.57;;;;;;;;;;5017870;28;20461;-68
2021/04/22 05:42:51;;;;;;;11.13;4.60;;;;;;;;;;5053736;22;21184;-62
2021/04/22 05:45:18;;;;;;;14.97;4.30;;;;;;;;;;5038490;28;20457;-63
2021/04/22 05:47:45;;;;;;;7.00;3.03;;;;;;;;;;5040636;28;20460;-63
2021/04/22 05:50:13;;;;;;;3.30;2.63;;;;;;;;;;5018679;28;20830;-64
2021/04/22 05:52:40;;;;;;;12.00;4.07;;;;;;;;;;5019552;28;20465;-61
2021/04/22 05:55:07;;;;;;;11.07;3.30;;;;;;;;;;5036602;28;20514;-61
2021/04/22 05:57:35;;;;;;;7.57;3.40;;;;;;;;;;5027995;28;20514;-60
2021/04/22 06:00:02;;;;;;;6.57;3.63;;;;;;;;;;5032715;28;20472;-61
2021/04/22 06:02:28;;;;;;;6.33;3.10;;;;;;;;;;5032027;28;20481;-62
2021/04/22 06:04:55;;;;;;;6.03;2.90;;;;;;;;;;5026842;28;20495;-62
2021/04/22 06:07:21;;;;;;;9.10;2.67;;;;;;;;;;5015887;28;20462;-60
2021/04/22 06:09:48;;;;;;;7.93;2.70;;;;;;;;;;5034823;28;20452;-60
2021/04/22 06:12:15;;;;;;;10.27;3.83;;;;;;;;;;5032338;28;20472;-61
2021/04/22 06:14:42;;;;;;;7.10;3.10;;;;;;;;;;5031637;28;20465;-61
2021/04/22 06:17:09;;;;;;;5.03;2.57;;;;;;;;;;5031534;28;20834;-61
2021/04/22 06:19:35;;;;;;;8.60;2.80;;;;;;;;;;5026539;28;20477;-61
2021/04/22 06:22:02;;;;;;;9.40;3.13;;;;;;;;;;5036759;28;20482;-61
2021/04/22 06:24:29;;;;;;;9.70;3.83;;;;;;;;;;5041707;28;21025;-61
2021/04/22 06:26:55;;;;;;;6.20;2.90;;;;;;;;;;5034742;28;20464;-62
2021/04/22 06:29:22;;;;;;;5.40;2.50;;;;;;;;;;5028379;28;20472;-61
2021/04/22 06:31:50;;;;;;;10.50;3.93;;;;;;;;;;5029405;28;20486;-61
2021/04/22 06:34:16;;;;;;;6.27;3.40;;;;;;;;;;5027997;28;20957;-61
2021/04/22 06:36:44;;;;;;;4.77;2.73;;;;;;;;;;5014017;28;20449;-61
2021/04/22 06:39:10;;;;;;;8.17;3.00;;;;;;;;;;5023881;28;20453;-61
2021/04/22 06:41:38;;;;;;;8.43;3.90;;;;;;;;;;5035347;28;20637;-61
2021/04/22 06:44:05;;;;;;;6.50;2.63;;;;;;;;;;5033588;28;20480;-61
2021/04/22 06:46:32;;;;;;;8.80;3.80;;;;;;;;;;5033344;28;20845;-61
2021/04/22 06:48:59;;;;;;;5.00;2.77;;;;;;;;;;5028035;28;20457;-61
2021/04/22 06:51:26;;;;;;;5.00;2.23;;;;;;;;;;5015370;28;20856;-61
2021/04/22 06:53:52;;;;;;;7.20;2.90;;;;;;;;;;5047682;28;20445;-61
2021/04/22 06:56:19;;;;;;;10.40;3.90;;;;;;;;;;5031146;28;20955;-62
2021/04/22 06:58:46;;;;;;;10.27;3.60;;;;;;;;;;5030314;28;20453;-62
2021/04/22 07:01:13;;;;;;;7.40;3.33;;;;;;;;;;5021271;28;20456;-61
2021/04/22 07:03:39;;;;;;;6.87;3.07;;;;;;;;;;5031321;28;20998;-60
2021/04/22 07:06:08;;;;;;;6.57;3.10;;;;;;;;;;5023898;28;20465;-60
2021/04/22 07:08:35;;;;;;;8.47;3.30;;;;;;;;;;5024105;28;20993;-63
2021/04/22 07:11:01;;;;;;;9.00;3.47;;;;;;;;;;5017408;28;20496;-60
2021/04/22 07:13:28;;;;;;;6.60;2.83;;;;;;;;;;5026899;28;20500;-61
2021/04/22 07:15:55;;;;;;;6.33;3.53;;;;;;;;;;5031764;28;20449;-61
2021/04/22 07:18:21;;;;;;;9.20;4.17;;;;;;;;;;5023766;28;20469;-60
2021/04/22 07:20:48;;;;;;;7.73;2.80;;;;;;;;;;5012894;28;20967;-61
2021/04/22 07:23:15;;;;;;;6.57;3.00;;;;;;;;;;5035998;28;20488;-61
2021/04/22 07:25:42;;;;;;;10.37;3.83;;;;;;;;;;5033570;28;20448;-61
2021/04/22 07:28:10;;;;;;;8.83;3.77;;;;;;;;;;5023563;28;20515;-63
2021/04/22 07:30:37;;;;;;;7.07;2.60;;;;;;;;;;5045616;28;20977;-61
2021/04/22 07:33:03;;;;;;;7.17;2.97;;;;;;;;;;5023630;28;20552;-63
2021/04/22 07:35:30;;;;;;;7.77;3.40;;;;;;;;;;5016624;28;20460;-60
2021/04/22 07:37:57;;;;;;;6.70;3.30;;;;;;;;;;5044718;28;20487;-61
2021/04/22 07:40:25;;;;;;;7.20;3.10;;;;;;;;;;5031600;28;20455;-60
2021/04/22 07:42:52;;;;;;;7.27;3.43;;;;;;;;;;5030701;28;21022;-61
2021/04/22 07:45:20;;;;;;;9.00;3.10;;;;;;;;;;5040589;28;20483;-61
2021/04/22 07:47:46;;;;;;;8.77;3.07;;;;;;;;;;5027983;28;20480;-61
2021/04/22 07:50:14;;;;;;;6.00;2.97;;;;;;;;;;5012342;28;20450;-62
2021/04/22 07:52:41;;;;;;;13.27;4.17;;;;;;;;;;5016864;28;20475;-61
2021/04/22 07:55:08;;;;;;;9.00;3.90;;;;;;;;;;5033013;28;20459;-61
2021/04/22 07:57:38;;;;;;;10.57;3.80;;;;;;;;;;5038877;28;20448;-64
2021/04/22 08:00:05;;;;;;;12.47;4.03;;;;;;;;;;5024619;28;20465;-65
2021/04/22 08:02:31;;;;;;;14.90;3.60;;;;;;;;;;5012328;28;20573;-63
2021/04/22 08:04:58;;;;;;;9.20;3.23;;;;;;;;;;5022696;28;20484;-61
2021/04/22 08:07:25;;;;;;;8.53;3.50;;;;;;;;;;5028906;28;20460;-61
2021/04/22 08:09:51;;;;;;;8.63;2.87;;;;;;;;;;5031965;28;20495;-60
2021/04/22 08:12:18;;;;;;;9.47;3.10;;;;;;;;;;5050802;28;20484;-62
2021/04/22 08:14:45;;;;;;;7.73;3.60;;;;;;;;;;5032552;28;20446;-61
2021/04/22 08:17:12;;;;;;;8.47;4.37;;;;;;;;;;5026356;28;20463;-63
2021/04/22 08:19:38;;;;;;;9.93;4.57;;;;;;;;;;5030224;28;20955;-63
2021/04/22 08:22:05;;;;;;;9.83;4.17;;;;;;;;;;5050881;28;20479;-63
2021/04/22 08:24:32;;;;;;;8.80;4.53;;;;;;;;;;5051572;28;20490;-65
2021/04/22 08:26:58;;;;;;;13.27;5.60;;;;;;;;;;5038428;28;20464;-62
2021/04/22 08:29:25;;;;;;;12.80;5.70;;;;;;;;;;5018406;28;20453;-62
2021/04/22 08:31:52;;;;;;;10.73;5.07;;;;;;;;;;5045442;28;20495;-60
2021/04/22 08:34:19;;;;;;;14.13;6.57;;;;;;;;;;5031468;28;20444;-62
2021/04/22 08:36:46;;;;;;;11.23;4.87;;;;;;;;;;5040745;28;20452;-61
2021/04/22 08:39:16;;;;;;;11.00;4.90;;;;;;;;;;5020071;28;20456;-61
2021/04/22 08:41:42;;;;;;;13.13;4.83;;;;;;;;;;5026993;28;20571;-62
2021/04/22 08:44:09;;;;;;;8.10;4.70;;;;;;;;;;5018198;28;20475;-64
2021/04/22 08:46:36;;;;;;;12.87;4.40;;;;;;;;;;5031316;28;20444;-61
2021/04/22 08:49:04;;;;;;;11.53;5.87;;;;;;;;;;5030676;28;20445;-61
2021/04/22 08:51:31;;;;;;;12.00;6.00;;;;;;;;;;5030598;28;20456;-61
2021/04/22 08:53:57;;;;;;;10.87;5.20;;;;;;;;;;5022499;28;20496;-62
2021/04/22 08:56:24;;;;;;;10.93;5.13;;;;;;;;;;5031382;28;20448;-62
2021/04/22 08:58:50;;;;;;;8.07;4.77;;;;;;;;;;5046864;28;20448;-61
2021/04/22 09:01:18;;;;;;;10.67;4.87;;;;;;;;;;5043377;28;20456;-62
2021/04/22 09:03:47;;;;;;;8.97;5.00;;;;;;;;;;5028957;28;20480;-61
2021/04/22 09:06:15;;;;;;;11.07;4.80;;;;;;;;;;5033727;28;20955;-61
2021/04/22 09:08:44;;;;;;;11.13;4.80;;;;;;;;;;5030247;28;20448;-60
2021/04/22 09:11:12;;;;;;;10.73;5.07;;;;;;;;;;5027351;28;20479;-61
2021/04/22 09:13:39;;;;;;;10.37;4.70;;;;;;;;;;5039036;28;21014;-60
2021/04/22 09:16:06;;;;;;;7.43;4.87;;;;;;;;;;5048907;28;20467;-61
2021/04/22 09:18:40;;;;;;;7.10;4.27;;;;;;;;;;5052217;28;20448;-61
2021/04/22 09:21:17;;;;;;;7.73;4.80;;;;;;;;;;5054554;28;20954;-61
2021/04/22 09:23:55;;;;;;;9.00;4.20;;;;;;;;;;5054399;28;20487;-61
2021/04/22 09:26:22;;;;;;;10.47;5.20;;;;;;;;;;5054564;28;20511;-60
2021/04/22 09:28:49;;;;;;;6.73;4.60;;;;;;;;;;5054547;28;20452;-60
2021/04/22 09:31:25;;;;;;;8.17;4.80;;;;;;;;;;5054293;28;20454;-61
2021/04/22 09:34:01;;;;;;;7.73;5.40;;;;;;;;;;5054590;28;20431;-61
2021/04/22 09:36:38;;;;;;;9.50;5.00;;;;;;;;;;5043282;28;20437;-61
2021/04/22 09:39:06;;;;;;;8.73;4.77;;;;;;;;;;5034456;28;20435;-60
2021/04/22 09:41:34;;;;;;;8.67;4.33;;;;;;;;;;5034520;28;20449;-60
2021/04/22 09:44:07;;;;;;;9.53;4.97;;;;;;;;;;5034319;28;20488;-60
2021/04/22 09:46:34;;;;;;;10.30;5.67;;;;;;;;;;5033906;28;20455;-61
2021/04/22 09:49:07;;;;;;;9.60;4.67;;;;;;;;;;5034401;28;20458;-60
2021/04/22 09:51:34;;;;;;;7.07;3.97;;;;;;;;;;5034067;28;20948;-61
2021/04/22 09:54:05;;;;;;;10.17;4.50;;;;;;;;;;5034431;28;20441;-60
2021/04/22 09:56:39;;;;;;;9.57;5.10;;;;;;;;;;5033998;28;20449;-60
2021/04/22 09:59:06;;;;;;;8.37;5.07;;;;;;;;;;5034144;28;20559;-60
2021/04/22 10:01:32;;;;;;;8.57;5.30;;;;;;;;;;5033918;28;20475;-60
2021/04/22 10:03:59;;;;;;;9.53;5.40;;;;;;;;;;5033967;28;20484;-60
2021/04/22 10:06:26;;;;;;;9.73;5.23;;;;;;;;;;5033934;28;20456;-60
2021/04/22 10:08:52;;;;;;;8.50;5.37;;;;;;;;;;5033939;28;20464;-61
2021/04/22 10:11:20;;;;;;;8.43;4.83;;;;;;;;;;5033990;28;20518;-61
2021/04/22 10:13:47;;;;;;;9.23;4.50;;;;;;;;;;5034087;28;20452;-60
2021/04/22 10:16:14;;;;;;;7.00;4.00;;;;;;;;;;5033720;28;20456;-61
2021/04/22 10:18:42;;;;;;;8.70;5.40;;;;;;;;;;5033909;28;20445;-60
2021/04/22 10:21:09;;;;;;;11.17;5.80;;;;;;;;;;5033586;28;20457;-60
2021/04/22 10:23:36;;;;;;;8.97;4.80;;;;;;;;;;5033664;28;20492;-60
2021/04/22 10:26:03;;;;;;;7.97;4.20;;;;;;;;;;5033263;28;20448;-62
2021/04/22 10:28:30;;;;;;;11.77;4.43;;;;;;;;;;5033651;28;20449;-61
2021/04/22 10:30:57;;;;;;;7.90;4.40;;;;;;;;;;5033755;28;20452;-61
2021/04/22 10:33:24;;;;;;;11.20;4.97;;;;;;;;;;5033791;28;20469;-60
2021/04/22 10:35:51;;;;;;;8.17;4.70;;;;;;;;;;5033416;28;20449;-62
2021/04/22 10:38:19;;;;;;;10.63;6.03;;;;;;;;;;5033982;28;20959;-61
2021/04/22 10:40:47;;;;;;;6.60;4.63;;;;;;;;;;5033328;28;20452;-61
2021/04/22 10:43:17;;;;;;;8.13;4.57;;;;;;;;;;5033302;28;20499;-61
2021/04/22 10:45:44;;;;;;;6.80;4.37;;;;;;;;;;5033033;28;20943;-61
2021/04/22 10:48:11;;;;;;;8.70;5.03;;;;;;;;;;5033003;28;20484;-62
2021/04/22 10:50:39;;;;;;;5.27;3.57;;;;;;;;;;5033456;28;20471;-61
2021/04/22 10:53:08;;;;;;;8.93;4.20;;;;;;;;;;5033047;28;20470;-62
2021/04/22 10:55:35;;;;;;;7.20;4.07;;;;;;;;;;5032847;28;20815;-61
2021/04/22 10:58:13;;;;;;;7.20;3.57;;;;;;;;;;5032931;28;20455;-62
2021/04/22 11:00:45;;;;;;;5.50;3.80;;;;;;;;;;5033202;28;20436;-61
2021/04/22 11:03:23;;;;;;;6.70;4.37;;;;;;;;;;5032821;28;20738;-61
2021/04/22 11:05:53;;;;;;;7.77;4.87;;;;;;;;;;5032512;28;20948;-61
2021/04/22 11:08:30;;;;;;;5.13;4.23;;;;;;;;;;5033065;28;20453;-60
2021/04/22 11:10:57;;;;;;;5.87;3.83;;;;;;;;;;5032776;28;20417;-61
2021/04/22 11:13:27;;;;;;;7.03;3.93;;;;;;;;;;5032998;28;20476;-61
2021/04/22 11:16:02;;;;;;;10.00;4.67;;;;;;;;;;5032503;28;20510;-61
2021/04/22 11:18:41;;;;;;;10.63;4.87;;;;;;;;;;5032888;28;20484;-61
2021/04/22 11:21:19;;;;;;;8.47;4.83;;;;;;;;;;5032755;28;20507;-61
2021/04/22 11:23:47;;;;;;;7.63;4.97;;;;;;;;;;5032820;28;20472;-61
2021/04/22 11:26:18;;;;;;;10.10;4.80;;;;;;;;;;5032016;28;20527;-61
2021/04/22 11:28:45;;;;;;;10.07;5.10;;;;;;;;;;5032529;28;20456;-61
2021/04/22 11:31:12;;;;;;;7.17;4.63;;;;;;;;;;5032472;28;20513;-61
2021/04/22 11:33:40;;;;;;;8.83;4.67;;;;;;;;;;5032505;28;20471;-61
2021/04/22 11:36:11;;;;;;;10.33;4.50;;;;;;;;;;5031902;28;20944;-61
2021/04/22 11:38:38;;;;;;;8.33;5.20;;;;;;;;;;5032354;28;20440;-60
2021/04/22 11:41:07;;;;;;;6.70;4.50;;;;;;;;;;5031835;28;20506;-61
2021/04/22 11:43:33;;;;;;;2.90;1.50;;;;;;;;;;5026090;28;20535;-62
2021/04/22 11:46:00;;;;;;;4.37;2.00;;;;;;;;;;5037616;28;20459;-60
2021/04/22 11:48:37;;;;;;;8.67;4.73;;;;;;;;;;5035720;28;20465;-62
2021/04/22 11:51:05;;;;;;;8.40;4.77;;;;;;;;;;5029695;28;20958;-62
2021/04/22 11:53:34;;;;;;;9.63;5.47;;;;;;;;;;5048712;28;20464;-62
2021/04/22 11:56:01;;;;;;;8.00;5.10;;;;;;;;;;5027098;28;20452;-62
2021/04/22 11:58:28;;;;;;;8.53;5.77;;;;;;;;;;5031001;28;20944;-62
2021/04/22 12:00:55;;;;;;;7.43;5.50;;;;;;;;;;5028953;28;20448;-62
2021/04/22 12:03:24;;;;;;;8.10;5.67;;;;;;;;;;5031284;28;20464;-64
2021/04/22 12:05:52;;;;;;;9.87;5.97;;;;;;;;;;5047974;28;20435;-64
2021/04/22 12:08:19;;;;;;;7.23;5.67;;;;;;;;;;5019292;28;20446;-64
2021/04/22 12:10:48;;;;;;;8.47;5.73;;;;;;;;;;5031436;28;20448;-64
2021/04/22 12:13:16;;;;;;;7.37;3.87;;;;;;;;;;5031759;28;20996;-65
2021/04/22 12:15:44;;;;;;;7.80;4.53;;;;;;;;;;5034163;28;20445;-65
2021/04/22 12:18:11;;;;;;;7.17;5.20;;;;;;;;;;5031844;28;20451;-65
2021/04/22 12:20:38;;;;;;;13.70;7.43;;;;;;;;;;5027794;28;20485;-65
2021/04/22 12:23:05;;;;;;;8.10;5.40;;;;;;;;;;5020224;28;20476;-65
2021/04/22 12:25:33;;;;;;;7.43;5.13;;;;;;;;;;5036958;28;20987;-65
2021/04/22 12:28:02;;;;;;;9.03;5.07;;;;;;;;;;5042723;28;20445;-63
2021/04/22 12:30:33;;;;;;;10.10;4.97;;;;;;;;;;5039583;28;20585;-65
2021/04/22 12:33:01;;;;;;;9.13;6.00;;;;;;;;;;5037030;28;20488;-65
2021/04/22 12:35:30;;;;;;;10.00;6.03;;;;;;;;;;5041383;28;20448;-64
2021/04/22 12:37:57;;;;;;;10.40;5.27;;;;;;;;;;5044339;28;20458;-65
2021/04/22 12:40:24;;;;;;;7.47;5.50;;;;;;;;;;5009966;28;20444;-66
2021/04/22 12:42:51;;;;;;;10.37;6.70;;;;;;;;;;5005186;28;20512;-62
2021/04/22 12:45:21;;;;;;;10.53;5.80;;;;;;;;;;5009215;28;20489;-64
2021/04/22 12:47:50;;;;;;;9.47;5.33;;;;;;;;;;5010821;28;20469;-64
2021/04/22 12:50:17;;;;;;;9.37;5.60;;;;;;;;;;5002940;28;20497;-65
2021/04/22 12:52:44;;;;;;;11.60;5.30;;;;;;;;;;4999071;28;20533;-63
2021/04/22 12:55:13;;;;;;;6.10;4.50;;;;;;;;;;4995902;28;20810;-61
2021/04/22 12:57:40;;;;;;;8.17;5.87;;;;;;;;;;4996600;28;20450;-65
2021/04/22 13:00:10;;;;;;;10.17;5.87;;;;;;;;;;5017183;28;20480;-65
2021/04/22 13:02:37;;;;;;;7.50;5.20;;;;;;;;;;5028811;28;20472;-65
2021/04/22 13:05:06;;;;;;;9.20;4.80;;;;;;;;;;5026233;28;20527;-65
2021/04/22 13:07:34;;;;;;;8.33;4.10;;;;;;;;;;5021037;28;20976;-64
2021/04/22 13:10:04;;;;;;;7.60;4.70;;;;;;;;;;5021063;28;20458;-65
2021/04/22 13:12:31;;;;;;;9.10;4.30;;;;;;;;;;5015477;28;20465;-64
2021/04/22 13:14:57;;;;;;;8.47;4.67;;;;;;;;;;5014783;28;20450;-64
2021/04/22 13:17:28;;;;;;;6.07;4.30;;;;;;;;;;5014881;28;20452;-65
2021/04/22 13:19:54;;;;;;;6.73;5.10;;;;;;;;;;5015248;28;20450;-65
2021/04/22 13:22:21;;;;;;;8.23;5.03;;;;;;;;;;5014940;28;20477;-64
2021/04/22 13:24:48;;;;;;;8.90;5.30;;;;;;;;;;5016032;28;20477;-65
2021/04/22 13:27:18;;;;;;;11.60;5.50;;;;;;;;;;5034490;28;20997;-65
2021/04/22 13:29:46;;;;;;;9.20;5.20;;;;;;;;;;5015840;28;20560;-65
2021/04/22 13:32:13;;;;;;;8.67;4.83;;;;;;;;;;5026606;28;20564;-64
2021/04/22 13:34:41;;;;;;;6.50;5.17;;;;;;;;;;5034831;28;20445;-64
2021/04/22 13:37:08;;;;;;;7.63;4.87;;;;;;;;;;5034747;28;20455;-65
2021/04/22 13:39:35;;;;;;;7.83;5.67;;;;;;;;;;5034189;28;20448;-65
2021/04/22 13:42:02;;;;;;;5.90;5.30;;;;;;;;;;5014193;28;21017;-65
2021/04/22 13:44:32;;;;;;;10.67;5.43;;;;;;;;;;5009415;28;20497;-65
2021/04/22 13:47:00;;;;;;;11.20;5.50;;;;;;;;;;5014494;28;20453;-65
2021/04/22 13:49:28;;;;;;;8.83;5.70;;;;;;;;;;5022264;28;20481;-65
2021/04/22 13:52:02;;;;;;;10.80;5.57;;;;;;;;;;5014775;28;20490;-64
2021/04/22 13:54:31;;;;;;;9.77;5.30;;;;;;;;;;5027371;28;20816;-64
2021/04/22 13:57:08;;;;;;;9.60;5.20;;;;;;;;;;5030128;28;20957;-65
2021/04/22 13:59:34;;;;;;;8.67;5.50;;;;;;;;;;5014365;28;20445;-65
2021/04/22 14:02:01;;;;;;;8.40;5.57;;;;;;;;;;5013600;28;20474;-64
2021/04/22 14:04:28;;;;;;;8.80;4.83;;;;;;;;;;5013662;28;20531;-65
2021/04/22 14:06:56;;;;;;;10.50;5.60;;;;;;;;;;5009361;28;20454;-65
2021/04/22 14:09:25;;;;;;;14.23;6.40;;;;;;;;;;5005244;28;20448;-65
2021/04/22 14:11:52;;;;;;;8.20;5.80;;;;;;;;;;5033424;28;20984;-65
2021/04/22 14:14:19;;;;;;;12.77;5.23;;;;;;;;;;5034170;28;20579;-64
2021/04/22 14:16:47;;;;;;;6.87;5.30;;;;;;;;;;5033638;28;20444;-65
2021/04/22 14:19:13;;;;;;;8.37;5.00;;;;;;;;;;5033745;28;20844;-65
2021/04/22 14:21:40;;;;;;;14.43;5.20;;;;;;;;;;5033267;28;20542;-63
2021/04/22 14:24:08;;;;;;;6.77;5.10;;;;;;;;;;5020760;28;20547;-64
2021/04/22 14:26:36;;;;;;;7.90;4.60;;;;;;;;;;4994338;28;20930;-64
2021/04/22 14:29:03;;;;;;;5.33;4.60;;;;;;;;;;4994715;28;20446;-63
2021/04/22 14:31:29;;;;;;;7.43;4.00;;;;;;;;;;4993840;28;20461;-63
2021/04/22 14:33:56;;;;;;;6.60;4.53;;;;;;;;;;5000292;28;20453;-63
2021/04/22 14:36:23;;;;;;;6.80;4.40;;;;;;;;;;5013083;28;20461;-63
2021/04/22 14:38:49;;;;;;;7.40;5.60;;;;;;;;;;5013992;28;20468;-64
2021/04/22 14:41:19;;;;;;;7.93;4.77;;;;;;;;;;5013323;28;20453;-64